Latest Weather Observations for Kurnell

IDN60801

Issued at 1:12 pm EST Saturday 15 June 2024 (issued every 10 minutes, with the page automatically refreshed every 10 minutes)

About weather observations | Map of weather stations | Latest weather observations for NSW | Other Formats
Station Details ID: 066043 Name: KURNELL AWS Lat: -34.00 Lon: 151.21 Height: 4.0 m
Data from the previous 72 hours. | See also: Recent months at Kurnell
Date/Time
EST
Temp
°C
App
Temp
°C
Dew
Point
°C
Rel
Hum
%
Delta-T
°C
Wind Press
QNH
hPa
Press
MSL
hPa
Rain since
9am
mm
Dir  Spd
km/h
Gust
km/h
Spd
kts
Gust
kts
15/01:00pm - - - - - SSW 17 26 9 14 - - -
15/12:30pm - - - - - SW 26 41 14 22 - - -
15/12:00pm - - - - - SW 22 32 12 17 - - -
15/11:30am - - - - - SW 24 37 13 20 - - -
15/11:00am - - - - - WSW 22 30 12 16 - - -
15/10:30am - - - - - SSW 28 41 15 22 - - -
15/10:25am - - - - - SSE 24 41 13 22 - - -
15/10:00am - - - - - SW 11 17 6 9 - - -
15/09:30am - - - - - WSW 20 28 11 15 - - -
15/09:00am - - - - - W 20 26 11 14 - - -
15/08:30am - - - - - W 17 24 9 13 - - -
15/08:00am - - - - - W 19 24 10 13 - - -
15/07:30am - - - - - SW 19 30 10 16 - - -
15/07:00am - - - - - SSW 17 26 9 14 - - -
15/06:30am - - - - - WSW 20 28 11 15 - - -
15/06:00am - - - - - SSE 20 32 11 17 - - -
15/05:30am - - - - - WSW 19 28 10 15 - - -
15/05:00am - - - - - SW 20 32 11 17 - - -
15/04:30am - - - - - WSW 24 32 13 17 - - -
15/04:00am - - - - - WSW 20 26 11 14 - - -
15/03:30am - - - - - WSW 17 22 9 12 - - -
15/03:00am - - - - - WSW 15 19 8 10 - - -
15/02:30am - - - - - W 15 19 8 10 - - -
15/02:00am - - - - - SW 17 20 9 11 - - -
15/01:30am - - - - - W 17 20 9 11 - - -
15/01:00am - - - - - WSW 11 13 6 7 - - -
15/12:30am - - - - - SW 9 15 5 8 - - -
15/12:00am - - - - - WSW 13 20 7 11 - - -
 
Date/Time
EST
Temp
°C
App
Temp
°C
Dew
Point
°C
Rel
Hum
%
Delta-T
°C
Wind Press
QNH
hPa
Press
MSL
hPa
Rain since
9am
mm
Dir  Spd
km/h
Gust
km/h
Spd
kts
Gust
kts
14/11:30pm - - - - - WSW 15 20 8 11 - - -
14/11:00pm - - - - - W 15 17 8 9 - - -
14/10:30pm - - - - - W 13 15 7 8 - - -
14/10:00pm - - - - - W 13 15 7 8 - - -
14/09:30pm - - - - - W 15 19 8 10 - - -
14/09:00pm - - - - - WSW 15 17 8 9 - - -
14/08:30pm - - - - - W 15 17 8 9 - - -
14/08:00pm - - - - - WSW 13 15 7 8 - - -
14/07:30pm - - - - - WSW 11 15 6 8 - - -
14/07:00pm - - - - - WNW 17 20 9 11 - - -
14/06:30pm - - - - - NNE 11 13 6 7 - - -
14/06:00pm - - - - - NE 11 17 6 9 - - -
14/05:30pm - - - - - NW 19 22 10 12 - - -
14/05:00pm - - - - - N 11 19 6 10 - - -
14/04:30pm - - - - - E 7 15 4 8 - - -
14/04:00pm - - - - - ENE 9 15 5 8 - - -
14/03:30pm - - - - - ESE 19 33 10 18 - - -
14/03:00pm - - - - - ESE 15 22 8 12 - - -
14/02:30pm - - - - - SE 24 37 13 20 - - -
14/02:00pm - - - - - SSE 15 26 8 14 - - -
14/01:30pm - - - - - S 17 30 9 16 - - -
14/01:00pm - - - - - SSE 15 32 8 17 - - -
14/12:30pm - - - - - S 24 35 13 19 - - -
14/12:00pm - - - - - SSW 28 39 15 21 - - -
14/11:30am - - - - - SSW 22 32 12 17 - - -
14/11:00am - - - - - SSW 22 30 12 16 - - -
14/10:30am - - - - - S 26 35 14 19 - - -
14/10:00am - - - - - S 26 33 14 18 - - -
14/09:30am - - - - - SSW 26 35 14 19 - - -
14/09:00am - - - - - SSW 26 35 14 19 - - -
14/08:30am - - - - - SSW 26 35 14 19 - - -
14/08:00am - - - - - SSW 26 37 14 20 - - -
14/07:30am - - - - - SW 28 39 15 21 - - -
14/07:00am - - - - - SSW 28 37 15 20 - - -
14/06:30am - - - - - SW 22 32 12 17 - - -
14/06:00am - - - - - WSW 13 17 7 9 - - -
14/05:30am - - - - - W 13 15 7 8 - - -
14/05:00am - - - - - WNW 17 20 9 11 - - -
14/04:30am - - - - - W 15 19 8 10 - - -
14/04:00am - - - - - WSW 13 17 7 9 - - -
14/03:30am - - - - - W 22 26 12 14 - - -
14/03:00am - - - - - W 20 26 11 14 - - -
14/02:30am - - - - - W 17 20 9 11 - - -
14/02:00am - - - - - W 17 20 9 11 - - -
14/01:30am - - - - - WSW 15 19 8 10 - - -
14/01:00am - - - - - WSW 11 13 6 7 - - -
14/12:30am - - - - - W 17 19 9 10 - - -
14/12:00am - - - - - W 19 22 10 12 - - -
 
Date/Time
EST
Temp
°C
App
Temp
°C
Dew
Point
°C
Rel
Hum
%
Delta-T
°C
Wind Press
QNH
hPa
Press
MSL
hPa
Rain since
9am
mm
Dir  Spd
km/h
Gust
km/h
Spd
kts
Gust
kts
13/11:30pm - - - - - W 20 24 11 13 - - -
13/11:00pm - - - - - W 19 20 10 11 - - -
13/10:30pm - - - - - W 22 26 12 14 - - -
13/10:00pm - - - - - W 19 20 10 11 - - -
13/09:30pm - - - - - W 17 19 9 10 - - -
13/09:00pm - - - - - W 19 22 10 12 - - -
13/08:30pm - - - - - W 20 24 11 13 - - -
13/08:00pm - - - - - W 20 26 11 14 - - -
13/07:30pm - - - - - W 19 22 10 12 - - -
13/07:00pm - - - - - W 17 20 9 11 - - -
13/06:30pm - - - - - W 20 24 11 13 - - -
13/06:00pm - - - - - W 20 22 11 12 - - -
13/05:30pm - - - - - WSW 19 22 10 12 - - -
13/05:00pm - - - - - WSW 17 20 9 11 - - -
13/04:30pm - - - - - WSW 19 24 10 13 - - -
13/04:00pm - - - - - SW 19 26 10 14 - - -
13/03:30pm - - - - - SW 22 32 12 17 - - -
13/03:00pm - - - - - SW 24 33 13 18 - - -
13/02:30pm - - - - - SW 26 35 14 19 - - -
13/02:00pm - - - - - SW 26 37 14 20 - - -
13/01:30pm - - - - - SW 26 37 14 20 - - -
13/01:00pm - - - - - SW 24 32 13 17 - - -
13/12:30pm - - - - - SW 24 35 13 19 - - -
13/12:00pm - - - - - SW 24 30 13 16 - - -
13/11:30am - - - - - WSW 19 28 10 15 - - -
13/11:00am - - - - - W 22 26 12 14 - - -
13/10:30am - - - - - W 24 32 13 17 - - -
13/10:00am - - - - - W 24 30 13 16 - - -
13/09:30am - - - - - W 24 30 13 16 - - -
13/09:00am - - - - - W 26 30 14 16 - - -
13/08:30am - - - - - W 19 24 10 13 - - -
13/08:00am - - - - - W 22 24 12 13 - - -
13/07:30am - - - - - W 26 30 14 16 - - -
13/07:00am - - - - - W 28 32 15 17 - - -
13/06:30am - - - - - W 24 32 13 17 - - -
13/06:00am - - - - - W 32 37 17 20 - - -
13/05:30am - - - - - W 30 33 16 18 - - -
13/05:00am - - - - - W 26 30 14 16 - - -
13/04:30am - - - - - W 28 33 15 18 - - -
13/04:00am - - - - - W 30 35 16 19 - - -
13/03:30am - - - - - W 28 32 15 17 - - -
13/03:00am - - - - - W 30 33 16 18 - - -
13/02:30am - - - - - W 28 33 15 18 - - -
13/02:00am - - - - - WSW 24 30 13 16 - - -
13/01:30am - - - - - W 26 32 14 17 - - -
13/01:00am - - - - - WSW 24 30 13 16 - - -
13/12:30am - - - - - WSW 26 32 14 17 - - -
13/12:00am - - - - - W 24 28 13 15 - - -
 
Date/Time
EST
Temp
°C
App
Temp
°C
Dew
Point
°C
Rel
Hum
%
Delta-T
°C
Wind Press
QNH
hPa
Press
MSL
hPa
Rain since
9am
mm
Dir  Spd
km/h
Gust
km/h
Spd
kts
Gust
kts
12/11:30pm - - - - - WSW 26 32 14 17 - - -
12/11:00pm - - - - - WSW 28 35 15 19 - - -
12/10:30pm - - - - - W 30 35 16 19 - - -
12/10:00pm - - - - - WSW 22 28 12 15 - - -
12/09:30pm - - - - - SW 28 35 15 19 - - -
12/09:00pm - - - - - WSW 26 30 14 16 - - -
12/08:30pm - - - - - WSW 28 35 15 19 - - -
12/08:00pm - - - - - WSW 28 37 15 20 - - -
12/07:30pm - - - - - SW 30 37 16 20 - - -
12/07:00pm - - - - - WSW 28 39 15 21 - - -
12/06:30pm - - - - - WSW 22 35 12 19 - - -
12/06:00pm - - - - - WSW 15 17 8 9 - - -
12/05:30pm - - - - - W 17 20 9 11 - - -
12/05:00pm - - - - - WSW 17 19 9 10 - - -
12/04:30pm - - - - - WSW 17 20 9 11 - - -
12/04:00pm - - - - - WSW 17 24 9 13 - - -
12/03:30pm - - - - - SSW 22 35 12 19 - - -
12/03:00pm - - - - - SSW 28 41 15 22 - - -
12/02:30pm - - - - - SSW 44 63 24 34 - - -
12/02:00pm - - - - - SSW 46 69 25 37 - - -
12/01:35pm - - - - - SSW 50 72 27 39 - - -
12/01:30pm - - - - - SW 48 67 26 36 - - -
12/01:26pm - - - - - WSW 48 67 26 36 - - -
12/01:24pm - - - - - WSW 48 67 26 36 - - -

Other formats

Comma delimited format used in spreadsheet applications
http://www.bom.gov.au/fwo/IDN60801/IDN60801.95756.axf

JavaScript Object Notation format (JSON) in row-major order
http://www.bom.gov.au/fwo/IDN60801/IDN60801.95756.json

Data quality

Most of these data are generated automatically and are frequently updated. Quality checks on data are not normally performed. It is possible for incorrect values to appear. Refer to information at About Latest Weather Observations and please check the disclaimer before using these data.